»·PEaware :: WAT175 KLAS-KSAN

WAT175 :: KLAS-KSAN

FLIGHT INFORMATION

Flight Status: Arrived
Operator:
Walker Air Transport
More flights by this operator :: More flights under this callsign
Pilot: Michael C. (27126)
Aircraft: BOEING 737-800
(B738)
More flights by this aircraft type
Origin: KLAS McCarran Intl
United States
Destination: KSAN San Diego Intl-Lindbergh
United States
More flights between these airports :: More routes between these airports
Route: BOACH8 LVELL LUCKI1
File this flight plan on PilotEdge
Remarks: RMK / SIMBRIEF
Altitude:
(Current/Filed)
28,000ft
Speed:
(Current/Filed)
442kts
Departed: 21-Aug-20 05:15 PM
Arrived: 21-Aug-20 05:58 PM
Distance/Time
Traveled:
225nm/0:42
Distance/Time
To Go:
Arrived

Flight Plot

Page will automatically refresh every two minutes.

Flight plan parsing failed; only flown route is shown


Map Options




Map Legend


Flown Route
Filed Route
Departure Airport
Arrival Airport
Navaid (VOR, NDB)
Fix

Horizontal Profiles

Position Reports

Time Latitude Longitude Heading Altitude Ground
Speed
21-Aug-20 16:17 36.081006 -115.147687 66 2121ft 0kts
21-Aug-20 16:18 36.081006 -115.147687 66 2121ft 0kts
21-Aug-20 16:19 36.081006 -115.147687 66 2121ft 0kts
21-Aug-20 16:20 36.081006 -115.147687 66 2121ft 0kts
21-Aug-20 16:21 36.081006 -115.147687 66 2121ft 0kts
21-Aug-20 16:22 36.081006 -115.147687 66 2121ft 0kts
21-Aug-20 16:23 36.081006 -115.147687 66 2121ft 0kts
21-Aug-20 16:24 36.081006 -115.147687 66 2121ft 0kts
21-Aug-20 16:25 36.081006 -115.147687 66 2121ft 0kts
21-Aug-20 16:26 36.081006 -115.147687 66 2121ft 0kts
21-Aug-20 16:27 36.081006 -115.147687 66 2121ft 0kts
21-Aug-20 16:28 36.081006 -115.147687 66 2121ft 0kts
21-Aug-20 16:29 36.081006 -115.147687 66 2121ft 0kts
21-Aug-20 16:30 36.081006 -115.147687 66 2121ft 0kts
21-Aug-20 16:31 36.081006 -115.147687 66 2121ft 0kts
21-Aug-20 16:32 36.081006 -115.147687 66 2121ft 0kts
21-Aug-20 16:33 36.081006 -115.147687 66 2121ft 0kts
21-Aug-20 16:34 36.081006 -115.147687 66 2121ft 0kts
21-Aug-20 16:35 36.081006 -115.147687 66 2121ft 0kts
21-Aug-20 16:36 36.081006 -115.147687 66 2121ft 0kts
21-Aug-20 16:37 36.081006 -115.147687 66 2121ft 0kts
21-Aug-20 16:38 36.081006 -115.147687 66 2121ft 0kts
21-Aug-20 16:39 36.081006 -115.147687 66 2121ft 0kts
21-Aug-20 16:40 36.081006 -115.147687 66 2121ft 0kts
21-Aug-20 16:41 36.081006 -115.147687 66 2121ft 0kts
21-Aug-20 16:42 36.081006 -115.147687 66 2121ft 0kts
21-Aug-20 16:43 36.081006 -115.147687 66 2121ft 0kts
21-Aug-20 16:44 36.081006 -115.147687 66 2121ft 0kts
21-Aug-20 16:45 36.081006 -115.147687 66 2121ft 0kts
21-Aug-20 16:46 36.081006 -115.147687 66 2121ft 0kts
21-Aug-20 16:47 36.081006 -115.147687 66 2121ft 0kts
21-Aug-20 16:48 36.081006 -115.147687 66 2121ft 0kts
21-Aug-20 16:49 36.081006 -115.147687 66 2121ft 0kts
21-Aug-20 16:50 36.081006 -115.147687 66 2121ft 0kts
21-Aug-20 16:51 36.081006 -115.147688 66 2121ft 0kts
21-Aug-20 16:52 36.081006 -115.147688 66 2121ft 0kts
21-Aug-20 16:53 36.081006 -115.147688 66 2121ft 0kts
21-Aug-20 16:54 36.081006 -115.147688 66 2121ft 0kts
21-Aug-20 16:55 36.081006 -115.147688 66 2121ft 0kts
21-Aug-20 16:56 36.081006 -115.147688 66 2121ft 0kts
21-Aug-20 16:57 36.081006 -115.147688 66 2121ft 0kts
21-Aug-20 16:58 36.081006 -115.147688 66 2121ft 0kts
21-Aug-20 16:59 36.081006 -115.147688 66 2121ft 0kts
21-Aug-20 17:00 36.081006 -115.147688 66 2121ft 0kts
21-Aug-20 17:01 36.081006 -115.147688 66 2121ft 0kts
21-Aug-20 17:02 36.081006 -115.147688 66 2121ft 0kts
21-Aug-20 17:03 36.080954 -115.147873 62 2121ft 2kts
21-Aug-20 17:04 36.081077 -115.148490 153 2121ft 0kts
21-Aug-20 17:05 36.081142 -115.148525 156 2121ft 0kts
21-Aug-20 17:06 36.079718 -115.147743 154 2121ft 12kts
21-Aug-20 17:07 36.079364 -115.147539 154 2121ft 0kts
21-Aug-20 17:08 36.078366 -115.144584 94 2121ft 22kts
21-Aug-20 17:09 36.078281 -115.137767 90 2121ft 20kts
21-Aug-20 17:10 36.078279 -115.132191 90 2121ft 17kts
21-Aug-20 17:11 36.078279 -115.125044 89 2121ft 30kts
21-Aug-20 17:12 36.077455 -115.121477 137 2121ft 0kts
21-Aug-20 17:13 36.076737 -115.121286 198 2121ft 16kts
21-Aug-20 17:14 36.076428 -115.159750 270 2593ft 204kts
21-Aug-20 17:15 36.072608 -115.230892 245 4937ft 253kts
21-Aug-20 17:16 36.011052 -115.283083 199 8079ft 287kts
21-Aug-20 17:17 35.932745 -115.306061 186 10925ft 321kts
21-Aug-20 17:18 35.842095 -115.312727 175 13718ft 344kts
21-Aug-20 17:19 35.745289 -115.301362 175 16532ft 358kts
21-Aug-20 17:20 35.643950 -115.295324 182 19040ft 372kts
21-Aug-20 17:21 35.539683 -115.300046 182 19157ft 370kts
21-Aug-20 17:22 35.435363 -115.304275 182 19200ft 389kts
21-Aug-20 17:23 35.320297 -115.308841 182 20644ft 423kts
21-Aug-20 17:24 35.200078 -115.313584 182 22427ft 439kts
21-Aug-20 17:25 35.076409 -115.328979 194 23952ft 452kts
21-Aug-20 17:26 34.953436 -115.369308 194 25436ft 459kts
21-Aug-20 17:27 34.831108 -115.404823 193 27145ft 457kts
21-Aug-20 17:28 34.708369 -115.439044 194 27829ft 451kts
21-Aug-20 17:29 34.587818 -115.479046 197 27967ft 446kts
21-Aug-20 17:30 34.468972 -115.523891 198 28006ft 441kts
21-Aug-20 17:31 34.350934 -115.568173 197 28009ft 446kts
21-Aug-20 17:32 34.230982 -115.608061 197 28009ft 445kts
21-Aug-20 17:33 34.123937 -115.655782 201 28012ft 390kts
21-Aug-20 17:34 34.022719 -115.703490 201 26102ft 395kts
21-Aug-20 17:35 33.923936 -115.750003 201 23904ft 383kts
21-Aug-20 17:36 33.827467 -115.797131 202 23788ft 385kts
21-Aug-20 17:37 33.725844 -115.846221 201 23789ft 413kts
21-Aug-20 17:38 33.614992 -115.897950 201 23787ft 434kts
21-Aug-20 17:39 33.512893 -115.971095 225 23792ft 433kts
21-Aug-20 17:40 33.437498 -116.083344 232 22124ft 426kts
21-Aug-20 17:41 33.371164 -116.195337 234 18797ft 403kts
21-Aug-20 17:42 33.284882 -116.282404 207 18785ft 405kts
21-Aug-20 17:44 33.191785 -116.338654 205 17554ft 349kts
21-Aug-20 17:45 33.105194 -116.387306 204 15656ft 340kts
21-Aug-20 17:46 33.020350 -116.435571 204 13745ft 332kts
21-Aug-20 17:47 32.947595 -116.502477 216 11896ft 329kts
21-Aug-20 17:48 32.879733 -116.571237 217 10490ft 309kts
21-Aug-20 17:49 32.818867 -116.632454 216 9812ft 280kts
21-Aug-20 17:50 32.764160 -116.698400 237 8396ft 286kts
21-Aug-20 17:51 32.725078 -116.780977 240 6891ft 284kts
21-Aug-20 17:52 32.693741 -116.864107 251 5202ft 263kts
21-Aug-20 17:53 32.676857 -116.941959 270 4185ft 222kts
21-Aug-20 17:54 32.692073 -117.005474 267 4170ft 196kts
21-Aug-20 17:55 32.704083 -117.068578 283 2675ft 195kts
21-Aug-20 17:56 32.717989 -117.125104 283 1468ft 176kts
21-Aug-20 17:57 32.728794 -117.169922 283 289ft 154kts
21-Aug-20 17:58 32.736190 -117.200798 278 25ft 11kts
21-Aug-20 17:59 32.735828 -117.202042 205 25ft 7kts
21-Aug-20 18:00 32.734165 -117.203285 265 25ft 0kts

Navigation Log

Ident Type
Flight plan parsing failed, navigation log unavailable